sensor_id;sensor_type;location;lat;lon;timestamp;temperature;humidity
36442;DHT22;22470;50.824;16.284;2022-08-18T00:01:17;21.40;99.90
36442;DHT22;22470;50.824;16.284;2022-08-18T00:03:45;21.40;99.90
36442;DHT22;22470;50.824;16.284;2022-08-18T00:06:27;21.30;99.90
36442;DHT22;22470;50.824;16.284;2022-08-18T00:08:58;21.40;99.90
36442;DHT22;22470;50.824;16.284;2022-08-18T00:11:26;21.40;99.90
36442;DHT22;22470;50.824;16.284;2022-08-18T00:14:10;21.40;99.90
36442;DHT22;22470;50.824;16.284;2022-08-18T00:16:50;21.40;99.90
36442;DHT22;22470;50.824;16.284;2022-08-18T00:19:18;21.40;99.90
36442;DHT22;22470;50.824;16.284;2022-08-18T00:21:45;21.40;99.90
36442;DHT22;22470;50.824;16.284;2022-08-18T00:24:12;21.50;99.90
36442;DHT22;22470;50.824;16.284;2022-08-18T00:26:39;21.40;99.90
36442;DHT22;22470;50.824;16.284;2022-08-18T00:29:12;21.40;99.90
36442;DHT22;22470;50.824;16.284;2022-08-18T00:31:39;21.40;99.90
36442;DHT22;22470;50.824;16.284;2022-08-18T00:34:07;21.30;99.90
36442;DHT22;22470;50.824;16.284;2022-08-18T00:36:34;21.20;99.90
36442;DHT22;22470;50.824;16.284;2022-08-18T00:39:01;21.10;99.90
36442;DHT22;22470;50.824;16.284;2022-08-18T00:41:29;21.00;99.90
36442;DHT22;22470;50.824;16.284;2022-08-18T00:43:56;21.00;99.90
36442;DHT22;22470;50.824;16.284;2022-08-18T00:46:29;21.10;99.90
36442;DHT22;22470;50.824;16.284;2022-08-18T00:48:57;21.10;99.90
36442;DHT22;22470;50.824;16.284;2022-08-18T00:51:32;21.10;99.90
36442;DHT22;22470;50.824;16.284;2022-08-18T00:54:12;21.00;99.90
36442;DHT22;22470;50.824;16.284;2022-08-18T00:56:47;21.00;99.90
36442;DHT22;22470;50.824;16.284;2022-08-18T00:59:48;20.90;99.90
36442;DHT22;22470;50.824;16.284;2022-08-18T01:02:20;21.00;99.90
36442;DHT22;22470;50.824;16.284;2022-08-18T01:07:35;20.90;99.90
36442;DHT22;22470;50.824;16.284;2022-08-18T01:10:04;20.90;99.90
36442;DHT22;22470;50.824;16.284;2022-08-18T01:12:32;20.90;99.90
36442;DHT22;22470;50.824;16.284;2022-08-18T01:15:12;20.90;99.90
36442;DHT22;22470;50.824;16.284;2022-08-18T01:17:58;20.90;99.90
36442;DHT22;22470;50.824;16.284;2022-08-18T01:20:33;20.80;99.90
36442;DHT22;22470;50.824;16.284;2022-08-18T01:23:10;20.70;99.90
36442;DHT22;22470;50.824;16.284;2022-08-18T01:25:38;20.60;99.90
36442;DHT22;22470;50.824;16.284;2022-08-18T01:28:06;20.70;99.90
36442;DHT22;22470;50.824;16.284;2022-08-18T01:30:45;20.70;99.90
36442;DHT22;22470;50.824;16.284;2022-08-18T01:33:13;20.70;99.90
36442;DHT22;22470;50.824;16.284;2022-08-18T01:35:45;20.70;99.90
36442;DHT22;22470;50.824;16.284;2022-08-18T01:38:14;20.70;99.90
36442;DHT22;22470;50.824;16.284;2022-08-18T01:40:41;20.70;99.90
36442;DHT22;22470;50.824;16.284;2022-08-18T01:43:28;20.60;99.90
36442;DHT22;22470;50.824;16.284;2022-08-18T01:45:55;20.60;99.90
36442;DHT22;22470;50.824;16.284;2022-08-18T01:48:22;20.60;99.90
36442;DHT22;22470;50.824;16.284;2022-08-18T01:50:49;20.60;99.90
36442;DHT22;22470;50.824;16.284;2022-08-18T01:53:17;20.60;99.90
36442;DHT22;22470;50.824;16.284;2022-08-18T01:55:44;20.60;99.90
36442;DHT22;22470;50.824;16.284;2022-08-18T01:58:11;20.60;99.90
36442;DHT22;22470;50.824;16.284;2022-08-18T02:00:39;20.50;99.90
36442;DHT22;22470;50.824;16.284;2022-08-18T02:03:09;20.40;99.90
36442;DHT22;22470;50.824;16.284;2022-08-18T02:05:46;20.40;99.90
36442;DHT22;22470;50.824;16.284;2022-08-18T02:08:15;20.40;99.90
36442;DHT22;22470;50.824;16.284;2022-08-18T02:10:42;20.40;99.90
36442;DHT22;22470;50.824;16.284;2022-08-18T02:13:10;20.40;99.90
36442;DHT22;22470;50.824;16.284;2022-08-18T02:15:37;20.50;99.90
36442;DHT22;22470;50.824;16.284;2022-08-18T02:18:16;20.40;99.90
36442;DHT22;22470;50.824;16.284;2022-08-18T02:21:12;20.40;99.90
36442;DHT22;22470;50.824;16.284;2022-08-18T02:23:46;20.40;99.90
36442;DHT22;22470;50.824;16.284;2022-08-18T02:26:20;20.30;99.90
36442;DHT22;22470;50.824;16.284;2022-08-18T02:28:47;20.30;99.90
36442;DHT22;22470;50.824;16.284;2022-08-18T02:31:18;20.30;99.90
36442;DHT22;22470;50.824;16.284;2022-08-18T02:33:46;20.30;99.90
36442;DHT22;22470;50.824;16.284;2022-08-18T02:36:19;20.30;99.90
36442;DHT22;22470;50.824;16.284;2022-08-18T02:38:49;20.30;99.90
36442;DHT22;22470;50.824;16.284;2022-08-18T02:41:26;20.30;99.90
36442;DHT22;22470;50.824;16.284;2022-08-18T02:43:56;20.30;99.90
36442;DHT22;22470;50.824;16.284;2022-08-18T02:46:24;20.30;99.90
36442;DHT22;22470;50.824;16.284;2022-08-18T02:48:56;20.20;99.90
36442;DHT22;22470;50.824;16.284;2022-08-18T02:51:23;20.20;99.90
36442;DHT22;22470;50.824;16.284;2022-08-18T02:53:52;20.20;99.90
36442;DHT22;22470;50.824;16.284;2022-08-18T02:56:24;20.10;99.90
36442;DHT22;22470;50.824;16.284;2022-08-18T02:59:14;20.20;99.90
36442;DHT22;22470;50.824;16.284;2022-08-18T03:01:45;20.10;99.90
36442;DHT22;22470;50.824;16.284;2022-08-18T03:04:14;20.10;99.90
36442;DHT22;22470;50.824;16.284;2022-08-18T03:06:42;20.10;99.90
36442;DHT22;22470;50.824;16.284;2022-08-18T03:09:13;20.10;99.90
36442;DHT22;22470;50.824;16.284;2022-08-18T03:11:41;20.20;99.90
36442;DHT22;22470;50.824;16.284;2022-08-18T03:14:09;20.20;99.90
36442;DHT22;22470;50.824;16.284;2022-08-18T03:16:39;20.10;99.90
36442;DHT22;22470;50.824;16.284;2022-08-18T03:19:30;20.00;99.90
36442;DHT22;22470;50.824;16.284;2022-08-18T03:22:00;19.90;99.90
36442;DHT22;22470;50.824;16.284;2022-08-18T03:24:30;19.90;99.90
36442;DHT22;22470;50.824;16.284;2022-08-18T03:26:59;19.90;99.90
36442;DHT22;22470;50.824;16.284;2022-08-18T03:29:26;19.90;99.90
36442;DHT22;22470;50.824;16.284;2022-08-18T03:32:00;19.90;99.90
36442;DHT22;22470;50.824;16.284;2022-08-18T03:34:28;19.90;99.90
36442;DHT22;22470;50.824;16.284;2022-08-18T03:36:56;19.80;99.90
36442;DHT22;22470;50.824;16.284;2022-08-18T03:39:23;19.90;99.90
36442;DHT22;22470;50.824;16.284;2022-08-18T03:41:51;19.90;99.90
36442;DHT22;22470;50.824;16.284;2022-08-18T03:44:34;19.90;99.90
36442;DHT22;22470;50.824;16.284;2022-08-18T03:47:02;20.00;99.90
36442;DHT22;22470;50.824;16.284;2022-08-18T03:49:31;19.90;99.90
36442;DHT22;22470;50.824;16.284;2022-08-18T03:51:58;19.80;99.90
36442;DHT22;22470;50.824;16.284;2022-08-18T03:54:25;19.90;99.90
36442;DHT22;22470;50.824;16.284;2022-08-18T03:56:53;19.90;99.90
36442;DHT22;22470;50.824;16.284;2022-08-18T03:59:23;19.90;99.90
36442;DHT22;22470;50.824;16.284;2022-08-18T04:01:52;19.90;99.90
36442;DHT22;22470;50.824;16.284;2022-08-18T04:04:22;19.90;99.90
36442;DHT22;22470;50.824;16.284;2022-08-18T04:06:56;19.90;99.90
36442;DHT22;22470;50.824;16.284;2022-08-18T04:09:27;19.90;99.90
36442;DHT22;22470;50.824;16.284;2022-08-18T04:11:56;19.90;99.90
36442;DHT22;22470;50.824;16.284;2022-08-18T04:14:25;19.90;99.90
36442;DHT22;22470;50.824;16.284;2022-08-18T04:16:53;19.90;99.90
36442;DHT22;22470;50.824;16.284;2022-08-18T04:19:20;20.00;99.90
36442;DHT22;22470;50.824;16.284;2022-08-18T04:21:57;20.00;99.90
36442;DHT22;22470;50.824;16.284;2022-08-18T04:24:26;20.00;99.90
36442;DHT22;22470;50.824;16.284;2022-08-18T04:26:55;20.00;99.90
36442;DHT22;22470;50.824;16.284;2022-08-18T04:29:23;20.10;99.90
36442;DHT22;22470;50.824;16.284;2022-08-18T04:31:51;20.00;99.90
36442;DHT22;22470;50.824;16.284;2022-08-18T04:34:20;20.10;99.90
36442;DHT22;22470;50.824;16.284;2022-08-18T04:36:48;20.10;99.90
36442;DHT22;22470;50.824;16.284;2022-08-18T04:39:16;20.10;99.90
36442;DHT22;22470;50.824;16.284;2022-08-18T04:41:43;20.20;99.90
36442;DHT22;22470;50.824;16.284;2022-08-18T04:44:11;20.30;99.90
36442;DHT22;22470;50.824;16.284;2022-08-18T04:46:44;20.50;99.90
36442;DHT22;22470;50.824;16.284;2022-08-18T04:49:12;20.60;99.90
36442;DHT22;22470;50.824;16.284;2022-08-18T04:51:43;20.70;99.90
36442;DHT22;22470;50.824;16.284;2022-08-18T04:54:32;20.80;99.90
36442;DHT22;22470;50.824;16.284;2022-08-18T04:57:06;20.90;99.90
36442;DHT22;22470;50.824;16.284;2022-08-18T04:59:33;21.00;99.90
36442;DHT22;22470;50.824;16.284;2022-08-18T05:02:01;21.20;99.90
36442;DHT22;22470;50.824;16.284;2022-08-18T05:04:28;21.30;99.90
36442;DHT22;22470;50.824;16.284;2022-08-18T05:06:55;21.50;99.90
36442;DHT22;22470;50.824;16.284;2022-08-18T05:09:22;21.60;99.90
36442;DHT22;22470;50.824;16.284;2022-08-18T05:11:50;21.70;99.90
36442;DHT22;22470;50.824;16.284;2022-08-18T05:14:17;21.90;99.90
36442;DHT22;22470;50.824;16.284;2022-08-18T05:16:45;22.10;99.90
36442;DHT22;22470;50.824;16.284;2022-08-18T05:19:17;22.20;99.90
36442;DHT22;22470;50.824;16.284;2022-08-18T05:21:45;22.30;99.90
36442;DHT22;22470;50.824;16.284;2022-08-18T05:24:18;22.40;99.90
36442;DHT22;22470;50.824;16.284;2022-08-18T05:26:46;22.40;99.90
36442;DHT22;22470;50.824;16.284;2022-08-18T05:29:13;22.50;99.90
36442;DHT22;22470;50.824;16.284;2022-08-18T05:31:47;22.60;99.90
36442;DHT22;22470;50.824;16.284;2022-08-18T05:34:15;22.70;99.90
36442;DHT22;22470;50.824;16.284;2022-08-18T05:41:59;23.20;99.90
36442;DHT22;22470;50.824;16.284;2022-08-18T05:44:31;23.40;99.90
36442;DHT22;22470;50.824;16.284;2022-08-18T05:47:07;23.60;99.90
36442;DHT22;22470;50.824;16.284;2022-08-18T05:49:37;23.80;99.90
36442;DHT22;22470;50.824;16.284;2022-08-18T05:52:28;24.00;99.90
36442;DHT22;22470;50.824;16.284;2022-08-18T05:55:02;24.20;99.90
36442;DHT22;22470;50.824;16.284;2022-08-18T05:57:33;24.40;99.90
36442;DHT22;22470;50.824;16.284;2022-08-18T06:00:05;24.40;99.90
36442;DHT22;22470;50.824;16.284;2022-08-18T06:02:59;24.50;99.90
36442;DHT22;22470;50.824;16.284;2022-08-18T06:08:04;24.80;99.90
36442;DHT22;22470;50.824;16.284;2022-08-18T06:10:34;25.00;99.90
36442;DHT22;22470;50.824;16.284;2022-08-18T06:13:02;25.30;99.90
36442;DHT22;22470;50.824;16.284;2022-08-18T06:18:22;25.90;99.90
36442;DHT22;22470;50.824;16.284;2022-08-18T06:27:16;27.00;99.90
36442;DHT22;22470;50.824;16.284;2022-08-18T06:29:49;27.30;99.90
36442;DHT22;22470;50.824;16.284;2022-08-18T06:35:58;28.30;99.90
36442;DHT22;22470;50.824;16.284;2022-08-18T06:38:51;28.60;99.90
36442;DHT22;22470;50.824;16.284;2022-08-18T06:41:36;28.90;99.90
36442;DHT22;22470;50.824;16.284;2022-08-18T06:44:28;29.10;99.90
36442;DHT22;22470;50.824;16.284;2022-08-18T06:50:19;29.40;99.90
36442;DHT22;22470;50.824;16.284;2022-08-18T06:58:04;29.90;99.90
36442;DHT22;22470;50.824;16.284;2022-08-18T07:00:34;30.20;99.10
36442;DHT22;22470;50.824;16.284;2022-08-18T07:03:17;30.50;98.40
36442;DHT22;22470;50.824;16.284;2022-08-18T07:08:39;31.20;96.40
36442;DHT22;22470;50.824;16.284;2022-08-18T07:13:40;31.80;94.40
36442;DHT22;22470;50.824;16.284;2022-08-18T07:16:16;32.00;94.10
36442;DHT22;22470;50.824;16.284;2022-08-18T07:21:36;32.60;92.20
36442;DHT22;22470;50.824;16.284;2022-08-18T07:24:08;32.60;90.70
36442;DHT22;22470;50.824;16.284;2022-08-18T07:29:38;32.70;90.20
36442;DHT22;22470;50.824;16.284;2022-08-18T07:32:14;32.80;90.10
36442;DHT22;22470;50.824;16.284;2022-08-18T07:34:50;32.90;89.10
36442;DHT22;22470;50.824;16.284;2022-08-18T07:37:28;33.00;88.30
36442;DHT22;22470;50.824;16.284;2022-08-18T07:42:57;33.10;86.40
36442;DHT22;22470;50.824;16.284;2022-08-18T07:45:46;33.10;85.30
36442;DHT22;22470;50.824;16.284;2022-08-18T07:54:16;33.60;83.60
36442;DHT22;22470;50.824;16.284;2022-08-18T08:00:45;33.60;82.90
36442;DHT22;22470;50.824;16.284;2022-08-18T08:07:04;33.80;80.60
36442;DHT22;22470;50.824;16.284;2022-08-18T08:10:24;33.80;79.60
36442;DHT22;22470;50.824;16.284;2022-08-18T08:13:01;33.90;79.20
36442;DHT22;22470;50.824;16.284;2022-08-18T08:15:46;33.90;77.60
36442;DHT22;22470;50.824;16.284;2022-08-18T08:18:24;34.10;77.40
36442;DHT22;22470;50.824;16.284;2022-08-18T08:21:07;34.00;77.70
36442;DHT22;22470;50.824;16.284;2022-08-18T08:29:23;34.10;77.50
36442;DHT22;22470;50.824;16.284;2022-08-18T08:32:04;34.40;76.90
36442;DHT22;22470;50.824;16.284;2022-08-18T08:34:48;34.50;76.90
36442;DHT22;22470;50.824;16.284;2022-08-18T08:37:53;34.50;75.30
36442;DHT22;22470;50.824;16.284;2022-08-18T08:40:46;34.70;75.60
36442;DHT22;22470;50.824;16.284;2022-08-18T08:43:25;34.70;75.70
36442;DHT22;22470;50.824;16.284;2022-08-18T08:46:09;34.70;75.00
36442;DHT22;22470;50.824;16.284;2022-08-18T08:48:45;34.50;75.80
36442;DHT22;22470;50.824;16.284;2022-08-18T08:51:40;34.40;75.00
36442;DHT22;22470;50.824;16.284;2022-08-18T08:54:41;34.30;74.40
36442;DHT22;22470;50.824;16.284;2022-08-18T08:57:12;34.40;75.50
36442;DHT22;22470;50.824;16.284;2022-08-18T08:59:41;34.50;74.80
36442;DHT22;22470;50.824;16.284;2022-08-18T09:02:47;34.40;74.80
36442;DHT22;22470;50.824;16.284;2022-08-18T09:05:20;34.30;75.00
36442;DHT22;22470;50.824;16.284;2022-08-18T09:10:49;34.20;74.60
36442;DHT22;22470;50.824;16.284;2022-08-18T09:16:35;34.00;74.70
36442;DHT22;22470;50.824;16.284;2022-08-18T09:24:47;33.50;72.80
36442;DHT22;22470;50.824;16.284;2022-08-18T09:30:01;33.10;73.90
36442;DHT22;22470;50.824;16.284;2022-08-18T09:32:42;33.00;75.30
36442;DHT22;22470;50.824;16.284;2022-08-18T09:35:34;32.80;74.60
36442;DHT22;22470;50.824;16.284;2022-08-18T09:38:06;32.60;74.80
36442;DHT22;22470;50.824;16.284;2022-08-18T09:40:35;32.30;76.30
36442;DHT22;22470;50.824;16.284;2022-08-18T09:45:59;32.00;77.30
36442;DHT22;22470;50.824;16.284;2022-08-18T09:48:37;31.90;77.80
36442;DHT22;22470;50.824;16.284;2022-08-18T09:51:34;31.80;77.00
36442;DHT22;22470;50.824;16.284;2022-08-18T09:54:10;31.60;78.20
36442;DHT22;22470;50.824;16.284;2022-08-18T09:57:05;31.50;77.40
36442;DHT22;22470;50.824;16.284;2022-08-18T10:02:06;31.30;77.00
36442;DHT22;22470;50.824;16.284;2022-08-18T10:10:58;31.00;76.90
36442;DHT22;22470;50.824;16.284;2022-08-18T10:13:57;30.90;77.30
36442;DHT22;22470;50.824;16.284;2022-08-18T10:22:53;30.60;77.30
36442;DHT22;22470;50.824;16.284;2022-08-18T10:25:39;30.60;77.80
36442;DHT22;22470;50.824;16.284;2022-08-18T10:31:18;30.50;77.20
36442;DHT22;22470;50.824;16.284;2022-08-18T10:34:10;30.50;77.60
36442;DHT22;22470;50.824;16.284;2022-08-18T10:39:26;30.40;79.20
36442;DHT22;22470;50.824;16.284;2022-08-18T10:44:46;30.30;77.70
36442;DHT22;22470;50.824;16.284;2022-08-18T10:47:27;30.30;76.50
36442;DHT22;22470;50.824;16.284;2022-08-18T10:50:03;30.20;77.60
36442;DHT22;22470;50.824;16.284;2022-08-18T10:55:31;30.20;77.50
36442;DHT22;22470;50.824;16.284;2022-08-18T11:01:17;30.10;76.30
36442;DHT22;22470;50.824;16.284;2022-08-18T11:03:56;30.10;77.40
36442;DHT22;22470;50.824;16.284;2022-08-18T11:06:41;30.10;77.30
36442;DHT22;22470;50.824;16.284;2022-08-18T11:09:10;30.10;77.40
36442;DHT22;22470;50.824;16.284;2022-08-18T11:11:40;30.10;77.80
36442;DHT22;22470;50.824;16.284;2022-08-18T11:17:40;30.00;76.40
36442;DHT22;22470;50.824;16.284;2022-08-18T11:20:13;30.00;76.40
36442;DHT22;22470;50.824;16.284;2022-08-18T11:22:55;30.00;77.10
36442;DHT22;22470;50.824;16.284;2022-08-18T11:25:30;30.00;78.80
36442;DHT22;22470;50.824;16.284;2022-08-18T11:27:58;30.10;80.50
36442;DHT22;22470;50.824;16.284;2022-08-18T11:30:33;30.10;79.80
36442;DHT22;22470;50.824;16.284;2022-08-18T11:33:03;30.10;79.00
36442;DHT22;22470;50.824;16.284;2022-08-18T11:35:33;30.10;79.10
36442;DHT22;22470;50.824;16.284;2022-08-18T11:38:03;30.10;79.00
36442;DHT22;22470;50.824;16.284;2022-08-18T11:43:35;30.10;79.40
36442;DHT22;22470;50.824;16.284;2022-08-18T11:46:25;30.00;80.40
36442;DHT22;22470;50.824;16.284;2022-08-18T11:48:59;29.90;79.80
36442;DHT22;22470;50.824;16.284;2022-08-18T11:51:28;29.80;80.10
36442;DHT22;22470;50.824;16.284;2022-08-18T11:56:38;29.80;80.90
36442;DHT22;22470;50.824;16.284;2022-08-18T12:02:16;29.70;80.60
36442;DHT22;22470;50.824;16.284;2022-08-18T12:04:49;29.80;80.80
36442;DHT22;22470;50.824;16.284;2022-08-18T12:07:26;29.80;79.90
36442;DHT22;22470;50.824;16.284;2022-08-18T12:10:15;29.80;79.30
36442;DHT22;22470;50.824;16.284;2022-08-18T12:12:49;29.90;79.00
36442;DHT22;22470;50.824;16.284;2022-08-18T12:17:51;29.90;78.50
36442;DHT22;22470;50.824;16.284;2022-08-18T12:20:21;29.80;78.70
36442;DHT22;22470;50.824;16.284;2022-08-18T12:22:49;29.80;79.30
36442;DHT22;22470;50.824;16.284;2022-08-18T12:25:18;29.80;79.60
36442;DHT22;22470;50.824;16.284;2022-08-18T12:27:52;29.90;80.00
36442;DHT22;22470;50.824;16.284;2022-08-18T12:30:21;29.80;79.30
36442;DHT22;22470;50.824;16.284;2022-08-18T12:32:49;29.80;79.00
36442;DHT22;22470;50.824;16.284;2022-08-18T12:35:32;29.80;80.10
36442;DHT22;22470;50.824;16.284;2022-08-18T12:38:00;29.90;79.70
36442;DHT22;22470;50.824;16.284;2022-08-18T12:40:40;29.90;79.70
36442;DHT22;22470;50.824;16.284;2022-08-18T12:43:08;29.90;78.70
36442;DHT22;22470;50.824;16.284;2022-08-18T12:45:36;30.00;78.40
36442;DHT22;22470;50.824;16.284;2022-08-18T12:48:05;29.90;78.70
36442;DHT22;22470;50.824;16.284;2022-08-18T12:50:34;29.90;78.90
36442;DHT22;22470;50.824;16.284;2022-08-18T12:53:22;29.90;79.10
36442;DHT22;22470;50.824;16.284;2022-08-18T12:56:23;29.90;78.40
36442;DHT22;22470;50.824;16.284;2022-08-18T12:58:52;29.90;77.70
36442;DHT22;22470;50.824;16.284;2022-08-18T13:01:20;29.90;78.10
36442;DHT22;22470;50.824;16.284;2022-08-18T13:03:50;29.90;78.50
36442;DHT22;22470;50.824;16.284;2022-08-18T13:06:43;29.90;78.80
36442;DHT22;22470;50.824;16.284;2022-08-18T13:09:28;29.90;79.80
36442;DHT22;22470;50.824;16.284;2022-08-18T13:12:16;29.90;79.50
36442;DHT22;22470;50.824;16.284;2022-08-18T13:14:45;29.90;78.80
36442;DHT22;22470;50.824;16.284;2022-08-18T13:17:13;29.90;80.10
36442;DHT22;22470;50.824;16.284;2022-08-18T13:20:05;29.90;80.00
36442;DHT22;22470;50.824;16.284;2022-08-18T13:22:34;29.80;78.90
36442;DHT22;22470;50.824;16.284;2022-08-18T13:25:03;29.90;79.30
36442;DHT22;22470;50.824;16.284;2022-08-18T13:27:32;29.80;78.50
36442;DHT22;22470;50.824;16.284;2022-08-18T13:30:08;29.80;79.10
36442;DHT22;22470;50.824;16.284;2022-08-18T13:32:56;29.80;79.40
36442;DHT22;22470;50.824;16.284;2022-08-18T13:35:29;29.80;78.70
36442;DHT22;22470;50.824;16.284;2022-08-18T13:38:14;29.80;79.80
36442;DHT22;22470;50.824;16.284;2022-08-18T13:40:49;29.80;78.60
36442;DHT22;22470;50.824;16.284;2022-08-18T13:43:19;29.80;79.40
36442;DHT22;22470;50.824;16.284;2022-08-18T13:45:49;29.80;79.40
36442;DHT22;22470;50.824;16.284;2022-08-18T13:48:19;29.80;79.60
36442;DHT22;22470;50.824;16.284;2022-08-18T13:50:46;29.80;80.30
36442;DHT22;22470;50.824;16.284;2022-08-18T13:53:19;29.80;79.20
36442;DHT22;22470;50.824;16.284;2022-08-18T13:55:47;29.70;79.20
36442;DHT22;22470;50.824;16.284;2022-08-18T13:58:14;29.70;79.20
36442;DHT22;22470;50.824;16.284;2022-08-18T14:00:50;29.70;79.40
36442;DHT22;22470;50.824;16.284;2022-08-18T14:03:18;29.60;79.10
36442;DHT22;22470;50.824;16.284;2022-08-18T14:06:05;29.60;79.10
36442;DHT22;22470;50.824;16.284;2022-08-18T14:08:33;29.60;78.60
36442;DHT22;22470;50.824;16.284;2022-08-18T14:11:01;29.60;78.60
36442;DHT22;22470;50.824;16.284;2022-08-18T14:13:29;29.50;79.10
36442;DHT22;22470;50.824;16.284;2022-08-18T14:16:10;29.50;78.80
36442;DHT22;22470;50.824;16.284;2022-08-18T14:18:46;29.50;78.70
36442;DHT22;22470;50.824;16.284;2022-08-18T14:21:13;29.50;78.90
36442;DHT22;22470;50.824;16.284;2022-08-18T14:23:41;29.50;79.00
36442;DHT22;22470;50.824;16.284;2022-08-18T14:26:19;29.50;78.90
36442;DHT22;22470;50.824;16.284;2022-08-18T14:28:46;29.50;78.80
36442;DHT22;22470;50.824;16.284;2022-08-18T14:31:18;29.50;78.00
36442;DHT22;22470;50.824;16.284;2022-08-18T14:33:48;29.50;78.60
36442;DHT22;22470;50.824;16.284;2022-08-18T14:36:20;29.50;79.00
36442;DHT22;22470;50.824;16.284;2022-08-18T14:38:57;29.50;78.90
36442;DHT22;22470;50.824;16.284;2022-08-18T14:41:25;29.50;78.70
36442;DHT22;22470;50.824;16.284;2022-08-18T14:43:54;29.50;78.30
36442;DHT22;22470;50.824;16.284;2022-08-18T14:46:41;29.50;78.70
36442;DHT22;22470;50.824;16.284;2022-08-18T14:49:18;29.50;78.40
36442;DHT22;22470;50.824;16.284;2022-08-18T14:51:59;29.60;78.40
36442;DHT22;22470;50.824;16.284;2022-08-18T14:54:39;29.60;78.20
36442;DHT22;22470;50.824;16.284;2022-08-18T14:57:12;29.60;78.40
36442;DHT22;22470;50.824;16.284;2022-08-18T14:59:40;29.60;78.00
36442;DHT22;22470;50.824;16.284;2022-08-18T15:02:10;29.60;78.30
36442;DHT22;22470;50.824;16.284;2022-08-18T15:04:40;29.50;78.40
36442;DHT22;22470;50.824;16.284;2022-08-18T15:07:22;29.50;78.30
36442;DHT22;22470;50.824;16.284;2022-08-18T15:09:49;29.50;78.00
36442;DHT22;22470;50.824;16.284;2022-08-18T15:12:37;29.50;78.50
36442;DHT22;22470;50.824;16.284;2022-08-18T15:15:06;29.60;78.30
36442;DHT22;22470;50.824;16.284;2022-08-18T15:17:34;29.50;78.60
36442;DHT22;22470;50.824;16.284;2022-08-18T15:20:05;29.60;78.60
36442;DHT22;22470;50.824;16.284;2022-08-18T15:22:40;29.50;78.40
36442;DHT22;22470;50.824;16.284;2022-08-18T15:25:08;29.60;79.20
36442;DHT22;22470;50.824;16.284;2022-08-18T15:27:36;29.50;79.10
36442;DHT22;22470;50.824;16.284;2022-08-18T15:30:13;29.60;78.80
36442;DHT22;22470;50.824;16.284;2022-08-18T15:32:49;29.60;78.50
36442;DHT22;22470;50.824;16.284;2022-08-18T15:35:18;29.60;78.90
36442;DHT22;22470;50.824;16.284;2022-08-18T15:37:47;29.50;78.90
36442;DHT22;22470;50.824;16.284;2022-08-18T15:40:23;29.60;80.30
36442;DHT22;22470;50.824;16.284;2022-08-18T15:43:07;29.60;79.60
36442;DHT22;22470;50.824;16.284;2022-08-18T15:45:39;29.50;79.60
36442;DHT22;22470;50.824;16.284;2022-08-18T15:48:23;29.60;79.80
36442;DHT22;22470;50.824;16.284;2022-08-18T15:50:50;29.60;79.80
36442;DHT22;22470;50.824;16.284;2022-08-18T15:53:24;29.60;79.60
36442;DHT22;22470;50.824;16.284;2022-08-18T15:55:56;29.60;80.20
36442;DHT22;22470;50.824;16.284;2022-08-18T15:58:23;29.50;80.70
36442;DHT22;22470;50.824;16.284;2022-08-18T16:00:52;29.50;80.70
36442;DHT22;22470;50.824;16.284;2022-08-18T16:03:20;29.50;81.10
36442;DHT22;22470;50.824;16.284;2022-08-18T16:05:53;29.40;81.20
36442;DHT22;22470;50.824;16.284;2022-08-18T16:08:22;29.40;81.40
36442;DHT22;22470;50.824;16.284;2022-08-18T16:10:51;29.40;82.10
36442;DHT22;22470;50.824;16.284;2022-08-18T16:13:18;29.40;81.80
36442;DHT22;22470;50.824;16.284;2022-08-18T16:15:46;29.30;81.90
36442;DHT22;22470;50.824;16.284;2022-08-18T16:18:15;29.30;81.80
36442;DHT22;22470;50.824;16.284;2022-08-18T16:20:43;29.20;81.70
36442;DHT22;22470;50.824;16.284;2022-08-18T16:23:11;29.20;81.90
36442;DHT22;22470;50.824;16.284;2022-08-18T16:25:40;29.20;82.30
36442;DHT22;22470;50.824;16.284;2022-08-18T16:28:09;29.20;82.60
36442;DHT22;22470;50.824;16.284;2022-08-18T16:30:36;29.10;83.10
36442;DHT22;22470;50.824;16.284;2022-08-18T16:33:05;29.10;83.00
36442;DHT22;22470;50.824;16.284;2022-08-18T16:35:33;29.00;82.90
36442;DHT22;22470;50.824;16.284;2022-08-18T16:38:06;28.90;83.10
36442;DHT22;22470;50.824;16.284;2022-08-18T16:40:35;28.90;83.20
36442;DHT22;22470;50.824;16.284;2022-08-18T16:43:03;29.00;83.10
36442;DHT22;22470;50.824;16.284;2022-08-18T16:45:30;28.90;83.20
36442;DHT22;22470;50.824;16.284;2022-08-18T16:47:58;28.90;83.30
36442;DHT22;22470;50.824;16.284;2022-08-18T16:50:25;28.90;83.30
36442;DHT22;22470;50.824;16.284;2022-08-18T16:52:52;28.90;83.30
36442;DHT22;22470;50.824;16.284;2022-08-18T16:55:20;28.90;83.00
36442;DHT22;22470;50.824;16.284;2022-08-18T16:57:47;28.90;83.10
36442;DHT22;22470;50.824;16.284;2022-08-18T17:00:23;28.80;83.30
36442;DHT22;22470;50.824;16.284;2022-08-18T17:02:50;28.80;83.40
36442;DHT22;22470;50.824;16.284;2022-08-18T17:05:17;28.90;83.30
36442;DHT22;22470;50.824;16.284;2022-08-18T17:07:45;28.90;83.50
36442;DHT22;22470;50.824;16.284;2022-08-18T17:10:12;28.80;83.50
36442;DHT22;22470;50.824;16.284;2022-08-18T17:12:39;28.80;83.50
36442;DHT22;22470;50.824;16.284;2022-08-18T17:15:06;28.80;83.80
36442;DHT22;22470;50.824;16.284;2022-08-18T17:17:34;28.80;83.50
36442;DHT22;22470;50.824;16.284;2022-08-18T17:20:01;28.80;83.50
36442;DHT22;22470;50.824;16.284;2022-08-18T17:22:32;28.80;83.70
36442;DHT22;22470;50.824;16.284;2022-08-18T17:25:00;28.80;83.90
36442;DHT22;22470;50.824;16.284;2022-08-18T17:27:32;28.80;83.90
36442;DHT22;22470;50.824;16.284;2022-08-18T17:30:07;28.70;83.90
36442;DHT22;22470;50.824;16.284;2022-08-18T17:32:45;28.70;84.00
36442;DHT22;22470;50.824;16.284;2022-08-18T17:35:38;28.70;84.20
36442;DHT22;22470;50.824;16.284;2022-08-18T17:38:31;28.70;84.30
36442;DHT22;22470;50.824;16.284;2022-08-18T17:41:02;28.60;84.40
36442;DHT22;22470;50.824;16.284;2022-08-18T17:43:34;28.60;84.50
36442;DHT22;22470;50.824;16.284;2022-08-18T17:46:17;28.60;84.40
36442;DHT22;22470;50.824;16.284;2022-08-18T17:48:50;28.50;84.20
36442;DHT22;22470;50.824;16.284;2022-08-18T17:51:28;28.50;84.50
36442;DHT22;22470;50.824;16.284;2022-08-18T17:53:59;28.40;84.70
36442;DHT22;22470;50.824;16.284;2022-08-18T17:56:37;28.40;85.10
36442;DHT22;22470;50.824;16.284;2022-08-18T17:59:11;28.40;85.40
36442;DHT22;22470;50.824;16.284;2022-08-18T18:02:18;28.40;85.50